sensor_id;sensor_type;location;lat;lon;timestamp;temperature;humidity
2935;DHT22;2462;51.456;7.248;2023-04-16T00:00:25;15.30;99.90
2935;DHT22;2462;51.456;7.248;2023-04-16T00:02:50;15.20;99.90
2935;DHT22;2462;51.456;7.248;2023-04-16T00:05:16;15.20;99.90
2935;DHT22;2462;51.456;7.248;2023-04-16T00:07:41;15.20;99.90
2935;DHT22;2462;51.456;7.248;2023-04-16T00:10:07;15.20;99.90
2935;DHT22;2462;51.456;7.248;2023-04-16T00:12:33;15.20;99.90
2935;DHT22;2462;51.456;7.248;2023-04-16T00:14:58;15.20;99.90
2935;DHT22;2462;51.456;7.248;2023-04-16T00:17:24;15.20;99.90
2935;DHT22;2462;51.456;7.248;2023-04-16T00:19:49;15.20;99.90
2935;DHT22;2462;51.456;7.248;2023-04-16T00:22:15;15.20;99.90
2935;DHT22;2462;51.456;7.248;2023-04-16T00:24:40;15.20;99.90
2935;DHT22;2462;51.456;7.248;2023-04-16T00:27:06;15.20;99.90
2935;DHT22;2462;51.456;7.248;2023-04-16T00:29:32;15.20;99.90
2935;DHT22;2462;51.456;7.248;2023-04-16T00:31:59;15.20;99.90
2935;DHT22;2462;51.456;7.248;2023-04-16T00:34:25;15.20;99.90
2935;DHT22;2462;51.456;7.248;2023-04-16T00:36:50;15.20;99.90
2935;DHT22;2462;51.456;7.248;2023-04-16T00:39:16;15.20;99.90
2935;DHT22;2462;51.456;7.248;2023-04-16T00:41:42;15.20;99.90
2935;DHT22;2462;51.456;7.248;2023-04-16T00:44:08;15.20;99.90
2935;DHT22;2462;51.456;7.248;2023-04-16T00:46:34;15.20;99.90
2935;DHT22;2462;51.456;7.248;2023-04-16T00:49:01;15.20;99.90
2935;DHT22;2462;51.456;7.248;2023-04-16T00:51:27;15.20;99.90
2935;DHT22;2462;51.456;7.248;2023-04-16T00:53:53;15.20;99.90
2935;DHT22;2462;51.456;7.248;2023-04-16T00:56:19;15.20;99.90
2935;DHT22;2462;51.456;7.248;2023-04-16T00:58:45;15.20;99.90
2935;DHT22;2462;51.456;7.248;2023-04-16T01:01:11;15.20;99.90
2935;DHT22;2462;51.456;7.248;2023-04-16T01:03:42;15.10;99.90
2935;DHT22;2462;51.456;7.248;2023-04-16T01:06:08;15.10;99.90
2935;DHT22;2462;51.456;7.248;2023-04-16T01:08:34;15.10;99.90
2935;DHT22;2462;51.456;7.248;2023-04-16T01:11:00;15.10;99.90
2935;DHT22;2462;51.456;7.248;2023-04-16T01:13:26;15.10;99.90
2935;DHT22;2462;51.456;7.248;2023-04-16T01:15:51;15.10;99.90
2935;DHT22;2462;51.456;7.248;2023-04-16T01:18:19;15.10;99.90
2935;DHT22;2462;51.456;7.248;2023-04-16T01:20:46;15.10;99.90
2935;DHT22;2462;51.456;7.248;2023-04-16T01:23:11;15.10;99.90
2935;DHT22;2462;51.456;7.248;2023-04-16T01:25:38;15.10;99.90
2935;DHT22;2462;51.456;7.248;2023-04-16T01:28:04;15.10;99.90
2935;DHT22;2462;51.456;7.248;2023-04-16T01:30:30;15.10;99.90
2935;DHT22;2462;51.456;7.248;2023-04-16T01:32:56;15.10;99.90
2935;DHT22;2462;51.456;7.248;2023-04-16T01:35:22;15.10;99.90
2935;DHT22;2462;51.456;7.248;2023-04-16T01:37:49;15.10;99.90
2935;DHT22;2462;51.456;7.248;2023-04-16T01:40:15;15.10;99.90
2935;DHT22;2462;51.456;7.248;2023-04-16T01:42:40;15.10;99.90
2935;DHT22;2462;51.456;7.248;2023-04-16T01:45:06;15.10;99.90
2935;DHT22;2462;51.456;7.248;2023-04-16T01:47:32;15.10;99.90
2935;DHT22;2462;51.456;7.248;2023-04-16T01:49:58;15.10;99.90
2935;DHT22;2462;51.456;7.248;2023-04-16T01:52:24;15.10;99.90
2935;DHT22;2462;51.456;7.248;2023-04-16T01:54:50;15.10;99.90
2935;DHT22;2462;51.456;7.248;2023-04-16T01:57:16;15.10;99.90
2935;DHT22;2462;51.456;7.248;2023-04-16T01:59:41;15.10;99.90
2935;DHT22;2462;51.456;7.248;2023-04-16T02:02:11;15.10;99.90
2935;DHT22;2462;51.456;7.248;2023-04-16T02:04:38;15.00;99.90
2935;DHT22;2462;51.456;7.248;2023-04-16T02:07:04;15.00;99.90
2935;DHT22;2462;51.456;7.248;2023-04-16T02:09:30;15.00;99.90
2935;DHT22;2462;51.456;7.248;2023-04-16T02:11:58;15.00;99.90
2935;DHT22;2462;51.456;7.248;2023-04-16T02:14:23;15.00;99.90
2935;DHT22;2462;51.456;7.248;2023-04-16T02:16:50;15.00;99.90
2935;DHT22;2462;51.456;7.248;2023-04-16T02:19:16;15.00;99.90
2935;DHT22;2462;51.456;7.248;2023-04-16T02:21:42;15.00;99.90
2935;DHT22;2462;51.456;7.248;2023-04-16T02:24:07;15.00;99.90
2935;DHT22;2462;51.456;7.248;2023-04-16T02:26:33;15.00;99.90
2935;DHT22;2462;51.456;7.248;2023-04-16T02:28:58;15.00;99.90
2935;DHT22;2462;51.456;7.248;2023-04-16T02:31:24;15.00;99.90
2935;DHT22;2462;51.456;7.248;2023-04-16T02:33:50;15.00;99.90
2935;DHT22;2462;51.456;7.248;2023-04-16T02:36:15;15.00;99.90
2935;DHT22;2462;51.456;7.248;2023-04-16T02:38:41;15.00;99.90
2935;DHT22;2462;51.456;7.248;2023-04-16T02:41:06;15.00;99.90
2935;DHT22;2462;51.456;7.248;2023-04-16T02:43:32;15.00;99.90
2935;DHT22;2462;51.456;7.248;2023-04-16T02:45:57;15.00;99.90
2935;DHT22;2462;51.456;7.248;2023-04-16T02:48:23;15.00;99.90
2935;DHT22;2462;51.456;7.248;2023-04-16T02:50:49;15.00;99.90
2935;DHT22;2462;51.456;7.248;2023-04-16T02:53:15;15.00;99.90
2935;DHT22;2462;51.456;7.248;2023-04-16T02:55:40;15.00;99.90
2935;DHT22;2462;51.456;7.248;2023-04-16T02:58:06;15.00;99.90
2935;DHT22;2462;51.456;7.248;2023-04-16T03:00:31;15.00;99.90
2935;DHT22;2462;51.456;7.248;2023-04-16T03:02:57;15.00;99.90
2935;DHT22;2462;51.456;7.248;2023-04-16T03:05:22;15.00;99.90
2935;DHT22;2462;51.456;7.248;2023-04-16T03:07:48;15.00;99.90
2935;DHT22;2462;51.456;7.248;2023-04-16T03:10:14;15.00;99.90
2935;DHT22;2462;51.456;7.248;2023-04-16T03:12:40;15.00;99.90
2935;DHT22;2462;51.456;7.248;2023-04-16T03:15:06;15.00;99.90
2935;DHT22;2462;51.456;7.248;2023-04-16T03:17:32;15.00;99.90
2935;DHT22;2462;51.456;7.248;2023-04-16T03:19:58;15.00;99.90
2935;DHT22;2462;51.456;7.248;2023-04-16T03:22:23;15.00;99.90
2935;DHT22;2462;51.456;7.248;2023-04-16T03:24:49;15.00;99.90
2935;DHT22;2462;51.456;7.248;2023-04-16T03:27:14;15.00;99.90
2935;DHT22;2462;51.456;7.248;2023-04-16T03:29:40;15.00;99.90
2935;DHT22;2462;51.456;7.248;2023-04-16T03:32:06;15.00;99.90
2935;DHT22;2462;51.456;7.248;2023-04-16T03:34:31;15.00;99.90
2935;DHT22;2462;51.456;7.248;2023-04-16T03:36:57;15.00;99.90
2935;DHT22;2462;51.456;7.248;2023-04-16T03:39:22;15.00;99.90
2935;DHT22;2462;51.456;7.248;2023-04-16T03:41:48;14.90;99.90
2935;DHT22;2462;51.456;7.248;2023-04-16T03:44:13;15.00;99.90
2935;DHT22;2462;51.456;7.248;2023-04-16T03:46:39;15.00;99.90
2935;DHT22;2462;51.456;7.248;2023-04-16T03:49:05;15.00;99.90
2935;DHT22;2462;51.456;7.248;2023-04-16T03:51:31;15.00;99.90
2935;DHT22;2462;51.456;7.248;2023-04-16T03:53:56;15.00;99.90
2935;DHT22;2462;51.456;7.248;2023-04-16T03:56:22;15.00;99.90
2935;DHT22;2462;51.456;7.248;2023-04-16T03:58:47;15.00;99.90
2935;DHT22;2462;51.456;7.248;2023-04-16T04:01:13;15.00;99.90
2935;DHT22;2462;51.456;7.248;2023-04-16T04:03:38;15.00;99.90
2935;DHT22;2462;51.456;7.248;2023-04-16T04:06:07;15.00;99.90
2935;DHT22;2462;51.456;7.248;2023-04-16T04:08:32;15.00;99.90
2935;DHT22;2462;51.456;7.248;2023-04-16T04:10:58;15.00;99.90
2935;DHT22;2462;51.456;7.248;2023-04-16T04:13:23;15.00;99.90
2935;DHT22;2462;51.456;7.248;2023-04-16T04:15:49;15.00;99.90
2935;DHT22;2462;51.456;7.248;2023-04-16T04:18:15;15.00;99.90
2935;DHT22;2462;51.456;7.248;2023-04-16T04:20:41;15.00;99.90
2935;DHT22;2462;51.456;7.248;2023-04-16T04:23:06;15.00;99.90
2935;DHT22;2462;51.456;7.248;2023-04-16T04:25:32;15.00;99.90
2935;DHT22;2462;51.456;7.248;2023-04-16T04:27:57;15.00;99.90
2935;DHT22;2462;51.456;7.248;2023-04-16T04:30:23;15.00;99.90
2935;DHT22;2462;51.456;7.248;2023-04-16T04:32:48;14.90;99.90
2935;DHT22;2462;51.456;7.248;2023-04-16T04:35:14;15.00;99.90
2935;DHT22;2462;51.456;7.248;2023-04-16T04:37:40;15.00;99.90
2935;DHT22;2462;51.456;7.248;2023-04-16T04:40:06;15.00;99.90
2935;DHT22;2462;51.456;7.248;2023-04-16T04:42:32;15.00;99.90
2935;DHT22;2462;51.456;7.248;2023-04-16T04:44:57;15.00;99.90
2935;DHT22;2462;51.456;7.248;2023-04-16T04:47:23;15.00;99.90
2935;DHT22;2462;51.456;7.248;2023-04-16T04:49:48;15.00;99.90
2935;DHT22;2462;51.456;7.248;2023-04-16T04:52:14;14.90;99.90
2935;DHT22;2462;51.456;7.248;2023-04-16T04:54:39;15.00;99.90
2935;DHT22;2462;51.456;7.248;2023-04-16T04:57:06;14.90;99.90
2935;DHT22;2462;51.456;7.248;2023-04-16T04:59:32;15.00;99.90
2935;DHT22;2462;51.456;7.248;2023-04-16T05:01:58;14.90;99.90
2935;DHT22;2462;51.456;7.248;2023-04-16T05:04:24;14.90;99.90
2935;DHT22;2462;51.456;7.248;2023-04-16T05:06:49;14.90;99.90
2935;DHT22;2462;51.456;7.248;2023-04-16T05:09:15;14.90;99.90
2935;DHT22;2462;51.456;7.248;2023-04-16T05:11:41;14.90;99.90
2935;DHT22;2462;51.456;7.248;2023-04-16T05:14:07;14.90;99.90
2935;DHT22;2462;51.456;7.248;2023-04-16T05:16:36;15.00;99.90
2935;DHT22;2462;51.456;7.248;2023-04-16T05:19:02;14.90;99.90
2935;DHT22;2462;51.456;7.248;2023-04-16T05:21:28;14.90;99.90
2935;DHT22;2462;51.456;7.248;2023-04-16T05:23:53;14.90;99.90
2935;DHT22;2462;51.456;7.248;2023-04-16T05:26:19;14.90;99.90
2935;DHT22;2462;51.456;7.248;2023-04-16T05:28:45;14.90;99.90
2935;DHT22;2462;51.456;7.248;2023-04-16T05:31:10;14.90;99.90
2935;DHT22;2462;51.456;7.248;2023-04-16T05:33:36;14.90;99.90
2935;DHT22;2462;51.456;7.248;2023-04-16T05:36:01;14.90;99.90
2935;DHT22;2462;51.456;7.248;2023-04-16T05:38:27;14.90;99.90
2935;DHT22;2462;51.456;7.248;2023-04-16T05:40:53;15.00;99.90
2935;DHT22;2462;51.456;7.248;2023-04-16T05:43:18;14.90;99.90
2935;DHT22;2462;51.456;7.248;2023-04-16T05:45:44;15.00;99.90
2935;DHT22;2462;51.456;7.248;2023-04-16T05:48:09;15.00;99.90
2935;DHT22;2462;51.456;7.248;2023-04-16T05:50:35;15.00;99.90
2935;DHT22;2462;51.456;7.248;2023-04-16T05:53:04;15.00;99.90
2935;DHT22;2462;51.456;7.248;2023-04-16T05:55:30;15.00;99.90
2935;DHT22;2462;51.456;7.248;2023-04-16T05:57:55;15.00;99.90
2935;DHT22;2462;51.456;7.248;2023-04-16T06:00:21;14.90;99.90
2935;DHT22;2462;51.456;7.248;2023-04-16T06:02:47;15.00;99.90
2935;DHT22;2462;51.456;7.248;2023-04-16T06:05:12;14.90;99.90
2935;DHT22;2462;51.456;7.248;2023-04-16T06:07:38;14.90;99.90
2935;DHT22;2462;51.456;7.248;2023-04-16T06:10:03;15.00;99.90
2935;DHT22;2462;51.456;7.248;2023-04-16T06:12:29;15.00;99.90
2935;DHT22;2462;51.456;7.248;2023-04-16T06:14:55;15.00;99.90
2935;DHT22;2462;51.456;7.248;2023-04-16T06:17:21;15.00;99.90
2935;DHT22;2462;51.456;7.248;2023-04-16T06:19:47;15.00;99.90
2935;DHT22;2462;51.456;7.248;2023-04-16T06:22:12;15.00;99.90
2935;DHT22;2462;51.456;7.248;2023-04-16T06:24:38;15.00;99.90
2935;DHT22;2462;51.456;7.248;2023-04-16T06:27:03;15.00;99.90
2935;DHT22;2462;51.456;7.248;2023-04-16T06:29:29;15.00;99.90
2935;DHT22;2462;51.456;7.248;2023-04-16T06:31:55;15.00;99.90
2935;DHT22;2462;51.456;7.248;2023-04-16T06:34:20;15.00;99.90
2935;DHT22;2462;51.456;7.248;2023-04-16T06:36:46;15.00;99.90
2935;DHT22;2462;51.456;7.248;2023-04-16T06:39:11;15.00;99.90
2935;DHT22;2462;51.456;7.248;2023-04-16T06:41:37;15.10;99.90
2935;DHT22;2462;51.456;7.248;2023-04-16T06:44:02;15.10;99.90
2935;DHT22;2462;51.456;7.248;2023-04-16T06:46:28;15.10;99.90
2935;DHT22;2462;51.456;7.248;2023-04-16T06:48:53;15.10;99.90
2935;DHT22;2462;51.456;7.248;2023-04-16T06:51:19;15.20;99.90
2935;DHT22;2462;51.456;7.248;2023-04-16T06:53:45;15.20;99.90
2935;DHT22;2462;51.456;7.248;2023-04-16T06:56:10;15.40;99.90
2935;DHT22;2462;51.456;7.248;2023-04-16T06:58:36;15.50;99.90
2935;DHT22;2462;51.456;7.248;2023-04-16T07:01:01;15.60;99.90
2935;DHT22;2462;51.456;7.248;2023-04-16T07:03:27;15.70;99.90
2935;DHT22;2462;51.456;7.248;2023-04-16T07:05:52;15.80;99.90
2935;DHT22;2462;51.456;7.248;2023-04-16T07:08:18;15.90;99.90
2935;DHT22;2462;51.456;7.248;2023-04-16T07:10:43;16.00;99.90
2935;DHT22;2462;51.456;7.248;2023-04-16T07:13:09;16.00;99.90
2935;DHT22;2462;51.456;7.248;2023-04-16T07:15:35;16.10;99.90
2935;DHT22;2462;51.456;7.248;2023-04-16T07:18:01;16.10;99.90
2935;DHT22;2462;51.456;7.248;2023-04-16T07:20:26;16.10;99.90
2935;DHT22;2462;51.456;7.248;2023-04-16T07:22:52;16.10;99.90
2935;DHT22;2462;51.456;7.248;2023-04-16T07:25:17;16.10;99.90
2935;DHT22;2462;51.456;7.248;2023-04-16T07:27:43;16.10;99.90
2935;DHT22;2462;51.456;7.248;2023-04-16T07:30:08;16.20;99.90
2935;DHT22;2462;51.456;7.248;2023-04-16T07:32:34;16.20;99.90
2935;DHT22;2462;51.456;7.248;2023-04-16T07:35:00;16.20;99.90
2935;DHT22;2462;51.456;7.248;2023-04-16T07:37:25;16.20;99.90
2935;DHT22;2462;51.456;7.248;2023-04-16T07:39:51;16.20;99.90
2935;DHT22;2462;51.456;7.248;2023-04-16T07:42:17;16.20;99.90
2935;DHT22;2462;51.456;7.248;2023-04-16T07:44:42;16.20;99.90
2935;DHT22;2462;51.456;7.248;2023-04-16T07:47:08;16.20;99.90
2935;DHT22;2462;51.456;7.248;2023-04-16T07:49:33;16.20;99.90
2935;DHT22;2462;51.456;7.248;2023-04-16T07:51:59;16.20;99.90
2935;DHT22;2462;51.456;7.248;2023-04-16T07:54:24;16.30;99.90
2935;DHT22;2462;51.456;7.248;2023-04-16T07:56:50;16.30;99.90
2935;DHT22;2462;51.456;7.248;2023-04-16T07:59:16;16.30;99.90
2935;DHT22;2462;51.456;7.248;2023-04-16T08:01:42;16.40;99.90
2935;DHT22;2462;51.456;7.248;2023-04-16T08:04:07;16.40;99.90
2935;DHT22;2462;51.456;7.248;2023-04-16T08:06:33;16.50;99.90
2935;DHT22;2462;51.456;7.248;2023-04-16T08:08:58;16.60;99.90
2935;DHT22;2462;51.456;7.248;2023-04-16T08:11:24;16.70;99.90
2935;DHT22;2462;51.456;7.248;2023-04-16T08:13:49;16.70;99.90
2935;DHT22;2462;51.456;7.248;2023-04-16T08:16:15;16.80;99.90
2935;DHT22;2462;51.456;7.248;2023-04-16T08:18:40;16.80;99.90
2935;DHT22;2462;51.456;7.248;2023-04-16T08:21:06;16.80;99.90
2935;DHT22;2462;51.456;7.248;2023-04-16T08:23:34;16.80;99.90
2935;DHT22;2462;51.456;7.248;2023-04-16T08:26:00;16.90;99.90
2935;DHT22;2462;51.456;7.248;2023-04-16T08:28:26;16.90;99.90
2935;DHT22;2462;51.456;7.248;2023-04-16T08:30:52;17.00;99.90
2935;DHT22;2462;51.456;7.248;2023-04-16T08:33:17;16.90;99.90
2935;DHT22;2462;51.456;7.248;2023-04-16T08:35:43;17.00;99.90
2935;DHT22;2462;51.456;7.248;2023-04-16T08:38:08;17.00;99.90
2935;DHT22;2462;51.456;7.248;2023-04-16T08:40:34;17.00;99.90
2935;DHT22;2462;51.456;7.248;2023-04-16T08:43:02;17.00;99.90
2935;DHT22;2462;51.456;7.248;2023-04-16T08:45:31;17.10;99.90
2935;DHT22;2462;51.456;7.248;2023-04-16T08:47:58;17.10;99.90
2935;DHT22;2462;51.456;7.248;2023-04-16T08:50:26;17.10;99.90
2935;DHT22;2462;51.456;7.248;2023-04-16T08:52:57;17.10;99.90
2935;DHT22;2462;51.456;7.248;2023-04-16T08:58:28;17.20;99.90
2935;DHT22;2462;51.456;7.248;2023-04-16T09:00:56;17.20;99.90
2935;DHT22;2462;51.456;7.248;2023-04-16T09:03:21;17.30;99.90
2935;DHT22;2462;51.456;7.248;2023-04-16T09:05:52;17.30;99.90
2935;DHT22;2462;51.456;7.248;2023-04-16T09:08:19;17.20;99.90
2935;DHT22;2462;51.456;7.248;2023-04-16T09:10:45;17.20;99.90
2935;DHT22;2462;51.456;7.248;2023-04-16T09:13:12;17.20;99.90
2935;DHT22;2462;51.456;7.248;2023-04-16T09:15:41;17.30;99.90
2935;DHT22;2462;51.456;7.248;2023-04-16T09:18:07;17.20;99.90
2935;DHT22;2462;51.456;7.248;2023-04-16T09:20:33;17.30;99.90
2935;DHT22;2462;51.456;7.248;2023-04-16T09:22:59;17.40;99.90
2935;DHT22;2462;51.456;7.248;2023-04-16T09:25:24;17.40;99.90
2935;DHT22;2462;51.456;7.248;2023-04-16T09:27:50;17.40;99.90
2935;DHT22;2462;51.456;7.248;2023-04-16T09:32:47;17.50;99.90
2935;DHT22;2462;51.456;7.248;2023-04-16T09:35:13;17.40;99.90
2935;DHT22;2462;51.456;7.248;2023-04-16T09:37:39;17.50;99.90
2935;DHT22;2462;51.456;7.248;2023-04-16T09:40:05;17.50;99.90
2935;DHT22;2462;51.456;7.248;2023-04-16T09:42:33;17.50;99.90
2935;DHT22;2462;51.456;7.248;2023-04-16T09:44:59;17.60;99.90
2935;DHT22;2462;51.456;7.248;2023-04-16T09:47:40;17.60;99.90
2935;DHT22;2462;51.456;7.248;2023-04-16T09:50:07;17.60;99.90
2935;DHT22;2462;51.456;7.248;2023-04-16T09:52:35;17.70;99.90
2935;DHT22;2462;51.456;7.248;2023-04-16T09:55:02;17.70;99.90
2935;DHT22;2462;51.456;7.248;2023-04-16T09:57:28;17.70;99.90
2935;DHT22;2462;51.456;7.248;2023-04-16T10:00:00;17.80;99.90
2935;DHT22;2462;51.456;7.248;2023-04-16T10:02:26;17.80;99.90
2935;DHT22;2462;51.456;7.248;2023-04-16T10:04:53;17.80;99.90
2935;DHT22;2462;51.456;7.248;2023-04-16T10:07:19;17.90;99.90
2935;DHT22;2462;51.456;7.248;2023-04-16T10:09:46;17.90;99.90
2935;DHT22;2462;51.456;7.248;2023-04-16T10:12:13;17.90;99.90
2935;DHT22;2462;51.456;7.248;2023-04-16T10:14:39;17.90;99.90
2935;DHT22;2462;51.456;7.248;2023-04-16T10:17:06;18.00;99.90
2935;DHT22;2462;51.456;7.248;2023-04-16T10:19:32;18.00;99.90
2935;DHT22;2462;51.456;7.248;2023-04-16T10:21:58;18.00;99.90
2935;DHT22;2462;51.456;7.248;2023-04-16T10:24:31;18.10;99.90
2935;DHT22;2462;51.456;7.248;2023-04-16T10:26:58;18.20;99.90
2935;DHT22;2462;51.456;7.248;2023-04-16T10:29:25;18.20;99.90
2935;DHT22;2462;51.456;7.248;2023-04-16T10:31:52;18.30;99.90
2935;DHT22;2462;51.456;7.248;2023-04-16T10:34:20;18.40;99.90
2935;DHT22;2462;51.456;7.248;2023-04-16T10:36:51;18.50;99.90
2935;DHT22;2462;51.456;7.248;2023-04-16T10:39:19;18.60;99.90
2935;DHT22;2462;51.456;7.248;2023-04-16T10:41:45;18.70;99.90
2935;DHT22;2462;51.456;7.248;2023-04-16T10:44:11;18.80;99.90
2935;DHT22;2462;51.456;7.248;2023-04-16T10:46:41;18.90;99.90
2935;DHT22;2462;51.456;7.248;2023-04-16T10:51:52;19.00;99.90
2935;DHT22;2462;51.456;7.248;2023-04-16T10:56:55;19.00;99.90
2935;DHT22;2462;51.456;7.248;2023-04-16T11:01:52;19.20;99.90
2935;DHT22;2462;51.456;7.248;2023-04-16T11:12:16;19.80;99.90
2935;DHT22;2462;51.456;7.248;2023-04-16T11:14:47;19.90;99.90
2935;DHT22;2462;51.456;7.248;2023-04-16T11:17:12;20.00;99.90
2935;DHT22;2462;51.456;7.248;2023-04-16T11:19:38;20.10;99.90
2935;DHT22;2462;51.456;7.248;2023-04-16T11:22:04;20.10;99.90
2935;DHT22;2462;51.456;7.248;2023-04-16T11:24:30;20.00;99.90
2935;DHT22;2462;51.456;7.248;2023-04-16T11:26:56;20.00;99.90
2935;DHT22;2462;51.456;7.248;2023-04-16T11:29:22;20.00;99.90
2935;DHT22;2462;51.456;7.248;2023-04-16T11:31:54;20.00;99.90
2935;DHT22;2462;51.456;7.248;2023-04-16T11:34:20;20.10;99.90
2935;DHT22;2462;51.456;7.248;2023-04-16T11:36:46;20.20;99.90
2935;DHT22;2462;51.456;7.248;2023-04-16T11:39:12;20.30;99.90
2935;DHT22;2462;51.456;7.248;2023-04-16T11:41:45;20.30;99.90
2935;DHT22;2462;51.456;7.248;2023-04-16T11:44:22;20.40;99.90
2935;DHT22;2462;51.456;7.248;2023-04-16T11:46:49;20.40;99.90
2935;DHT22;2462;51.456;7.248;2023-04-16T11:49:14;20.30;99.90
2935;DHT22;2462;51.456;7.248;2023-04-16T11:51:43;20.30;99.90
2935;DHT22;2462;51.456;7.248;2023-04-16T11:54:20;20.30;99.90
2935;DHT22;2462;51.456;7.248;2023-04-16T11:56:47;20.30;99.90
2935;DHT22;2462;51.456;7.248;2023-04-16T11:59:15;20.20;99.90
2935;DHT22;2462;51.456;7.248;2023-04-16T12:01:48;20.20;99.90
2935;DHT22;2462;51.456;7.248;2023-04-16T12:04:15;20.10;99.90
2935;DHT22;2462;51.456;7.248;2023-04-16T12:09:33;20.00;99.90
2935;DHT22;2462;51.456;7.248;2023-04-16T12:12:02;19.90;99.90
2935;DHT22;2462;51.456;7.248;2023-04-16T12:14:28;19.90;99.90
2935;DHT22;2462;51.456;7.248;2023-04-16T12:16:54;19.90;99.90
2935;DHT22;2462;51.456;7.248;2023-04-16T12:19:19;19.90;99.90
2935;DHT22;2462;51.456;7.248;2023-04-16T12:21:49;19.80;99.90
2935;DHT22;2462;51.456;7.248;2023-04-16T12:24:17;19.80;99.90
2935;DHT22;2462;51.456;7.248;2023-04-16T12:26:50;19.80;99.90
2935;DHT22;2462;51.456;7.248;2023-04-16T12:29:22;19.80;99.90
2935;DHT22;2462;51.456;7.248;2023-04-16T12:31:49;19.80;99.90
2935;DHT22;2462;51.456;7.248;2023-04-16T12:34:15;19.70;99.90
2935;DHT22;2462;51.456;7.248;2023-04-16T12:36:42;19.80;99.90
2935;DHT22;2462;51.456;7.248;2023-04-16T12:39:08;19.80;99.90
2935;DHT22;2462;51.456;7.248;2023-04-16T12:41:40;19.80;99.90
2935;DHT22;2462;51.456;7.248;2023-04-16T12:44:11;19.80;99.90
2935;DHT22;2462;51.456;7.248;2023-04-16T12:46:41;19.80;99.90
2935;DHT22;2462;51.456;7.248;2023-04-16T12:49:08;19.80;99.90
2935;DHT22;2462;51.456;7.248;2023-04-16T12:51:34;19.90;99.90
2935;DHT22;2462;51.456;7.248;2023-04-16T12:54:02;19.90;99.90
2935;DHT22;2462;51.456;7.248;2023-04-16T12:56:27;20.00;99.90
2935;DHT22;2462;51.456;7.248;2023-04-16T12:58:53;20.10;99.90
2935;DHT22;2462;51.456;7.248;2023-04-16T13:01:19;20.20;99.90
2935;DHT22;2462;51.456;7.248;2023-04-16T13:03:45;20.30;99.90
2935;DHT22;2462;51.456;7.248;2023-04-16T13:06:12;20.40;99.90
2935;DHT22;2462;51.456;7.248;2023-04-16T13:08:38;20.40;99.90
2935;DHT22;2462;51.456;7.248;2023-04-16T13:11:03;20.50;99.90
2935;DHT22;2462;51.456;7.248;2023-04-16T13:13:29;20.50;99.90
2935;DHT22;2462;51.456;7.248;2023-04-16T13:15:55;20.50;99.90
2935;DHT22;2462;51.456;7.248;2023-04-16T13:18:20;20.50;99.90
2935;DHT22;2462;51.456;7.248;2023-04-16T13:20:46;20.50;99.90
2935;DHT22;2462;51.456;7.248;2023-04-16T13:23:11;20.50;99.90
2935;DHT22;2462;51.456;7.248;2023-04-16T13:25:37;20.50;99.90
2935;DHT22;2462;51.456;7.248;2023-04-16T13:28:03;20.60;99.90
2935;DHT22;2462;51.456;7.248;2023-04-16T13:30:28;20.70;99.90
2935;DHT22;2462;51.456;7.248;2023-04-16T13:32:55;20.70;99.90
2935;DHT22;2462;51.456;7.248;2023-04-16T13:35:21;20.90;99.90
2935;DHT22;2462;51.456;7.248;2023-04-16T13:37:47;20.90;99.90
2935;DHT22;2462;51.456;7.248;2023-04-16T13:40:12;21.00;99.90
2935;DHT22;2462;51.456;7.248;2023-04-16T13:42:38;21.00;99.90
2935;DHT22;2462;51.456;7.248;2023-04-16T13:45:03;21.00;99.90
2935;DHT22;2462;51.456;7.248;2023-04-16T13:47:29;21.00;99.90
2935;DHT22;2462;51.456;7.248;2023-04-16T13:49:55;21.10;99.90
2935;DHT22;2462;51.456;7.248;2023-04-16T13:52:20;21.20;99.90
2935;DHT22;2462;51.456;7.248;2023-04-16T13:54:46;21.20;99.90
2935;DHT22;2462;51.456;7.248;2023-04-16T13:57:11;21.20;99.90
2935;DHT22;2462;51.456;7.248;2023-04-16T13:59:38;21.30;99.90
2935;DHT22;2462;51.456;7.248;2023-04-16T14:02:03;21.30;99.90
2935;DHT22;2462;51.456;7.248;2023-04-16T14:04:30;21.40;99.90
2935;DHT22;2462;51.456;7.248;2023-04-16T14:06:55;21.40;99.90
2935;DHT22;2462;51.456;7.248;2023-04-16T14:09:21;21.40;99.90
2935;DHT22;2462;51.456;7.248;2023-04-16T14:11:47;21.40;99.90
2935;DHT22;2462;51.456;7.248;2023-04-16T14:14:12;21.40;99.90
2935;DHT22;2462;51.456;7.248;2023-04-16T14:16:38;21.40;99.90
2935;DHT22;2462;51.456;7.248;2023-04-16T14:19:03;21.40;99.90
2935;DHT22;2462;51.456;7.248;2023-04-16T14:21:29;21.40;99.90
2935;DHT22;2462;51.456;7.248;2023-04-16T14:23:55;21.40;99.90
2935;DHT22;2462;51.456;7.248;2023-04-16T14:26:21;21.40;99.90
2935;DHT22;2462;51.456;7.248;2023-04-16T14:28:46;21.40;99.90
2935;DHT22;2462;51.456;7.248;2023-04-16T14:31:12;21.30;99.90
2935;DHT22;2462;51.456;7.248;2023-04-16T14:33:37;21.30;99.90
2935;DHT22;2462;51.456;7.248;2023-04-16T14:36:03;21.30;99.90
2935;DHT22;2462;51.456;7.248;2023-04-16T14:38:29;21.30;99.90
2935;DHT22;2462;51.456;7.248;2023-04-16T14:40:55;21.30;99.90
2935;DHT22;2462;51.456;7.248;2023-04-16T14:43:21;21.20;99.90
2935;DHT22;2462;51.456;7.248;2023-04-16T14:45:46;21.30;99.90
2935;DHT22;2462;51.456;7.248;2023-04-16T14:48:12;21.30;99.90
2935;DHT22;2462;51.456;7.248;2023-04-16T14:50:37;21.30;99.90
2935;DHT22;2462;51.456;7.248;2023-04-16T14:53:07;21.30;99.90
2935;DHT22;2462;51.456;7.248;2023-04-16T14:55:33;21.30;99.90
2935;DHT22;2462;51.456;7.248;2023-04-16T14:57:59;21.30;99.90
2935;DHT22;2462;51.456;7.248;2023-04-16T15:00:24;21.30;99.90
2935;DHT22;2462;51.456;7.248;2023-04-16T15:02:50;21.30;99.90
2935;DHT22;2462;51.456;7.248;2023-04-16T15:05:15;21.30;99.90
2935;DHT22;2462;51.456;7.248;2023-04-16T15:07:41;21.20;99.90
2935;DHT22;2462;51.456;7.248;2023-04-16T15:10:08;20.90;99.90
2935;DHT22;2462;51.456;7.248;2023-04-16T15:12:33;20.70;99.90
2935;DHT22;2462;51.456;7.248;2023-04-16T15:14:59;20.50;99.90
2935;DHT22;2462;51.456;7.248;2023-04-16T15:17:25;20.30;99.90
2935;DHT22;2462;51.456;7.248;2023-04-16T15:19:50;20.20;99.90
2935;DHT22;2462;51.456;7.248;2023-04-16T15:22:17;20.10;99.90
2935;DHT22;2462;51.456;7.248;2023-04-16T15:24:42;20.10;99.90
2935;DHT22;2462;51.456;7.248;2023-04-16T15:27:08;20.10;99.90
2935;DHT22;2462;51.456;7.248;2023-04-16T15:29:34;20.10;99.90
2935;DHT22;2462;51.456;7.248;2023-04-16T15:32:00;20.20;99.90
2935;DHT22;2462;51.456;7.248;2023-04-16T15:34:28;20.30;99.90
2935;DHT22;2462;51.456;7.248;2023-04-16T15:36:54;20.40;99.90
2935;DHT22;2462;51.456;7.248;2023-04-16T15:39:20;20.50;99.90
2935;DHT22;2462;51.456;7.248;2023-04-16T15:41:46;20.50;99.90
2935;DHT22;2462;51.456;7.248;2023-04-16T15:44:11;20.60;99.90
2935;DHT22;2462;51.456;7.248;2023-04-16T15:46:37;20.60;99.90
2935;DHT22;2462;51.456;7.248;2023-04-16T15:49:02;20.60;99.90
2935;DHT22;2462;51.456;7.248;2023-04-16T15:51:28;20.50;99.90
2935;DHT22;2462;51.456;7.248;2023-04-16T15:53:56;20.30;99.90
2935;DHT22;2462;51.456;7.248;2023-04-16T15:56:22;20.30;99.90
2935;DHT22;2462;51.456;7.248;2023-04-16T15:58:48;20.30;99.90
2935;DHT22;2462;51.456;7.248;2023-04-16T16:01:13;20.40;99.90
2935;DHT22;2462;51.456;7.248;2023-04-16T16:03:39;20.50;99.90
2935;DHT22;2462;51.456;7.248;2023-04-16T16:06:05;20.50;99.90
2935;DHT22;2462;51.456;7.248;2023-04-16T16:08:32;20.50;99.90
2935;DHT22;2462;51.456;7.248;2023-04-16T16:11:00;20.40;99.90
2935;DHT22;2462;51.456;7.248;2023-04-16T16:13:26;20.30;99.90
2935;DHT22;2462;51.456;7.248;2023-04-16T16:15:52;20.30;99.90
2935;DHT22;2462;51.456;7.248;2023-04-16T16:18:18;20.40;99.90